Extreme weather reports worldwide

Thunderstorm

Station
 
Location
 
Name
 
Wind
Knots
Gust
Knots
Vis
SM
Temp/Dew
C
Baro
inHg
METAR
 
FHU KFHU Fort Huachuca / Sierra Vista, US Sierra Vista Municipal Airport / Libby Army Air Field 11 34 0.5 18/17 30.17 KFHU 080137Z AUTO 25011G34KT 1/2SM -TSRA FG BKN024 BKN055 OVC220 18/17 A3017 RMK AO2 VIS 1/2V1 1/4 RAB17 TSB11 CIG 024V029 PRESRR SLP157 RVRNO
KNJW Meridian, US Joe Williams Nolf Airport 17 30 10 24/22 30.21 KNJW 080059Z AUTO 32017G30KT 10SM -TSRA SCT017 BKN055 OVC090 24/22 A3021 RMK AO2 WSHFT 0044 P0000 T02440222 $
SVC KSVC Silver City, US Grant County Airport 16 26 10 23/14 30.19 KSVC 080135Z AUTO 31016G26KT 10SM VCTS SCT065 SCT080 OVC100 24/14 A3019 RMK AO2 LTG DSNT W THRU N T02360142
KJHN 19 24 4 22/20 30.08 KJHN 080135Z AUTO 36019G24KT 4SM TSRA SCT007 BKN027 OVC046 23/20 A3008 RMK AO2 LTG DSNT ALQS T02290203
DSM KDSM Des Moines, US Des Moines International Airport 17 24 7 26/23 29.93 KDSM 080054Z 26017G24KT 7SM -TSRA FEW030 SCT044CB BKN090 OVC250 26/24 A2993 RMK AO2 PK WND 32037/0002 WSHFT 2358 LTG DSNT ALQDS RAB00 SLP124 OCNL LTGICCG S-W / DSNT W TS S-W / CB DSNT W MOV E P0068 T02610239

Station
 
Location
 
Name
 
Wind
Knots
Gust
Knots
Vis
SM
Temp/Dew
C
Baro
inHg
METAR
 
RKSV Pyoripsan, KR Pyoripsan Heliport 8 24 0 24/24 29.79 RKSV 080134Z 25008G024KT 0000 -TSRA FG VV001 24/24 A2979 RMK CIG001 TS B28 W MOV E
KULS Ulysses, US Ulysses Airport 18 23 4 28/19 30.07 KULS 080130Z AUTO 30018G23KT 4SM -VCTSRA SCT006 SCT011 SCT021 28/19 A3007 RMK AO2 LTG DSNT ALQS
DEN KDEN Denver, US Denver International Airport 15 23 6 20/16 30.29 KDEN 080115Z 02015G23KT 6SM -TSRA BR FEW030 BKN050CB BKN090 BKN180 BKN240 20/16 A3029 RMK AO2 WSHFT 0055 LTG DSNT ALQDS RAB0056 TSB03 OCNL LTGICCG OHD AND SW-W TS OHD AND SW-W MOV S P0000 T02000161 $
APA KAPA Denver, US Centennial Airport 11 22 10 20/13 30.31 KAPA 080138Z 02011G22KT 10SM TS BKN110CB 20/14 A3031 RMK AO2 WSHFT 0118 LTG DSNT W-NE TSB06 OCNL LTGICCG VC N TS VC N MOV E CB DSNT S-W-N MOV E T02000139 $
RKSQ Yeonpyeong-myeon, KR Yeonpyeong-Myeon Heliport 9 21 0.99 27/26 29.71 RKSQ 080030Z 21009G021KT 1600 -TSRA BR BKN002 FEW012CB OVC015 27/26 A2971 RMK CIG002 OCNL LTG CC TS B30 NW
LAM KLAM Los Alamos, US Los Alamos Airport 11 20 10 21/10 30.35 KLAM 080135Z AUTO 34011G20KT 10SM VCTS SCT095 BKN120 22/10 A3035 RMK AO2 LTG DSNT E SE AND W T02160104
K1V6 11 19 3 20/16 30.28 K1V6 080135Z AUTO 31011G19KT 3SM -TSRA SCT036 BKN060 OVC075 20/16 A3028 RMK AO2 P0002 LTG DSNT ALQS
KHMP 12 16 10 26/22 30.23 KHMP 080135Z AUTO 25012G16KT 10SM VCTS BKN060 26/23 A3023 RMK AO2 LTG DSNT ALQDS T02610228
KPRS US Presidio Lely International Airport 11 16 10 31/16 29.98 KPRS 080135Z AUTO 35011G16KT 10SM VCTS BKN110 32/17 A2998 RMK AO2 T03160168
K4BM 8 16 10 10/5 30.72 K4BM 080135Z AUTO 08008G16KT 10SM TSRA OVC065 10/05 A3072 RMK AO2 LTG DSNT N THRU S
KK70 9 15 10 29/25 30.07 KK70 080135Z AUTO 09009G15KT 10SM VCTS SCT024 SCT029 SCT038 29/25 A3007 RMK AO2 LTG DSNT SE
KOPN Thomaston, US Thomaston Upson County Airport 7 12 10 25/20 30.22 KOPN 080135Z AUTO 16007G12KT 10SM VCTS BKN023 OVC028 25/20 A3022 RMK AO2 LTG DSNT ALQS
MFM VMMC Macau, MO Macau International Airport 18 1.55 28/26 29.73 VMMC 080130Z 12018KT 100V160 2500 +TSRA FEW006 FEW012CB SCT020 BKN040 28/26 Q1007 TEMPO VRB15G25KT 2000 +TSRA
TNA ZSJN Jinan, CN Yaoqiang Airport 16 1.12 26/26 29.65 ZSJN 080140Z 02008MPS 1800 +TSRA BKN005 FEW030CB BKN033 26/26 Q1004 NOSIG
GCN KGCN Grand Canyon, US Grand Canyon National Park Airport 13 5 19/15 30.31 KGCN 080054Z 21013KT 5SM -TSRA FEW014 SCT065 BKN090 19/15 A3031 RMK AO2 RAB39 TSB2356E11B12 SLP181 P0001 T01940150
CAO KCAO Clayton, US Clayton Municipal Airpark 12 10 25/15 30.20 KCAO 080125Z AUTO 34012KT 10SM VCTS FEW095 SCT120 25/15 A3020 RMK AO2 PK WND 32029/0105 LTG DSNT N AND W T02500150
BJL GBYD Banjul, GM Banjul International Airport 12 5.59 24/24 29.85 GBYD 080100Z 25012KT 9000 TS SCT010 FEW018CB BKN100 24/24 Q1011 CB N-W
KPXE Perry, US Perry Houston County Airport 9 10 25/23 30.19 KPXE 080135Z AUTO 02009KT 10SM -VCTSRA SCT019 OVC027 26/24 A3019 RMK AO2 LTG DSNT W THRU NE T02560238
SAF KSAF Santa Fe, US Santa Fe Municipal Airport 8 10 21/12 30.27 KSAF 080141Z AUTO 14008KT 10SM VCTS BKN095 OVC110 22/13 A3027 RMK AO2 LTG DSNT NE AND S AND NW TSE06 T02170128
KAN DNKN Kano, NG Mallam Aminu International Airport 8 6.21 25/23 29.91 DNKN 080100Z 22008KT 9999 TS FEW010 FEW020CB 25/23 Q1013 NOSIG
GYD UBBB Baku, AZ Heydar Aliyev International Airport 8 6.21 24/21 29.79 UBBB 080130Z 32008KT 9999 VCTS SCT060CB 24/21 Q1009 NOSIG
WRB KWRB Warner Robins, US Robins Air Force Base 8 6 25/25 30.17 KWRB 080120Z AUTO 33008KT 6SM TS SCT027 25/25 A3017 RMK AO2 RAE13DZB13E20 TSB02E16TSB17 SLP217
BJC KBJC Denver, US Rocky Mountain Metropolitan Airport 8 15 18/17 30.31 KBJC 080045Z 03008KT 15SM TSRA SCT010 BKN050 18/17 A3031 RMK TSB0030 TS OVH MOV E CONS LTGCG E
TYZ KTYL Taylor, US Taylor Airport 8 10 23/13 30.29 KTYL 080135Z AUTO 29008KT 10SM TS BKN080 OVC110 23/13 A3029 RMK AO2 LTG DSNT N AND SE AND NW
ZIG GOGG Ziguinchor, SN Ziguinchor Airport 8 4.97 26/26 29.91 GOGG 080100Z 22008KT 8000 TSRA BKN015 FEW030CB 26/26 Q1013
PRC KPRC Prescott, US Prescott Regional Airport - Ernest A. Love Field 8 10 21/16 30.21 KPRC 080053Z 01008KT 10SM -TSRA SCT085 OVC110 21/16 A3021 RMK AO2 LTG DSNT SE AND S RAB24 SLP154 P0001 T02110161
AFF KAFF Colorado Springs, US USAF Academy Airfield 7 10 23/12 30.33 KAFF 080138Z 12007KT 10SM VCTS BKN055CB OVC110 23/12 A3033 RMK AO2A TS7SW MOV SE SLP178
BFK KBKF Aurora, US Buckley Air Force Base 7 10 24/13 30.26 KBKF 080118Z 09007KT 10SM VCTS -RA FEW007 SCT050 BKN090 OVC140 24/13 A3026 RMK AO2A SLP170
PAP MTPP Port-au-Prince, HT Toussaint Louverture International Airport 7 4.35 27/24 29.97 MTPP 080100Z 22007KT 7000 TSRA SCT020CB BKN060 27/24 Q1015 A2998 RMK/CB/N/S/E
MGM KMGM Montgomery, US Montgomery Regional (Dannelly Field) Airport 7 9 25/22 30.18 KMGM 080129Z 14007KT 9SM VCTS RA FEW043 SCT055 BKN100 26/23 A3018 RMK AO2 LTG DSNT NE AND S AND SW TSB08E23 P0006 T02560228
KNMM Meridian, US Meridian Naval Air Station 7 10 26/23 30.15 KNMM 080127Z 25007KT 10SM TS BKN028CB BKN110 27/24 A3015 RMK AO2 FRQ LTGICCC OHD TS OHD MOV UNKN T02670239 $
KVD UBBG Ganja, AZ Ganja Airport 6 6.21 21/20 29.82 UBBG 080130Z 29006KT 9999 VCTS SCT040CB BKN083 21/20 Q1010 NOSIG
KHRT Mary Esther, US Hurlburt Field 6 10 28/23 30.11 KHRT 080056Z 15006KT 10SM VCTS FEW050CB SCT150 BKN200 29/24 A3011 RMK AO2A LTG DSNT E SLP198 T02890238 $
DSS GOBD Dakar, SN Blaise Diagne International Airport 6 6.21 27/26 29.85 GOBD 080130Z 34006KT 9999 TS FEW012 FEW030CB 27/26 Q1011 NOSIG
MEX MMMX Mexico City, MX Licenciado Benito Juarez International Airport 6 6 16/12 30.35 MMMX 080052Z 15006KT 6SM -TSRA BKN020CB OVC080 16/12 A3035 NOSIG RMK 60105 8/96/ HZY OCNL LTGICC 1ST QUAD
KVO LYKV Kraljevo, RS Morava Airport 6 1.86 22/20 30.03 LYKV 080130Z VRB06KT 3000 TSRA FEW033CB SCT040 22/20 Q1017 BECMG NSW NSC
MGA MNMG Managua, NI Augusto C. Sandino (Managua) International Airport 6 4.97 24/22 29.79 MNMG 080100Z 14006KT 8000 TSRA FEW021CB BKN023 24/22 Q1009 A2981 CBRA/NE/SE/SW/NW BECMG 8000 -TSRA/DZ
PBR MGPB Puerto Barrios, GT Puerto Barrios Airport 6 4.35 26/25 29.85 MGPB 080100Z 09006KT 7000 +TSRA SCT014 FEW025CB OVC080 26/25 Q1011 A2985 CB/TS/LTNG E/ESE/SSE
KSTF Starkville, US George M Bryan Airport 6 10 / 30.13 KSTF 080135Z AUTO 16006KT 10SM VCTS CLR A3013 RMK AO2 LTG DSNT ALQDS
KFFC Atlanta, US Peachtree City Falcon Field 6 10 26/21 30.18 KFFC 080053Z AUTO 16006KT 10SM TS BKN042 OVC050 26/21 A3018 RMK AO2 LTG DSNT ALQDS TSE10B21E38B46 SLP212 T02610211
OUA DFFD Ouagadougou, BF Ouagadougou Airport 5 6.21 28/24 29.82 DFFD 080100Z 22005KT 9999 TS FEW020 FEW033CB 28/24 Q1010 BECMG 4000 TSRA
KPRN Greenville, US Mac Crenshaw Memorial Airport 5 10 23/22 30.15 KPRN 080058Z AUTO 17005KT 10SM TS SCT048 OVC100 24/22 A3015 RMK AO2 SLP154 T02390222 $
KGZH Evergreen, US Evergreen Regional Airport/Middleton Field 5 10 26/21 30.14 KGZH 080109Z AUTO 12005KT 10SM VCTS CLR 27/22 A3014 RMK AO2 LTG DSNT W-NE T02670217
ATL KATL Atlanta, US Hartsfield Jackson Atlanta International Airport 5 10 29/21 30.16 KATL 080052Z 12005KT 10SM TS FEW025 FEW040CB SCT100 SCT150 BKN250 29/21 A3016 RMK AO2 TSB46 SLP203 FRQ LTGICCG NW TS NW MOV SW CONS LTGICCCCGCA DSNT S-SW TS DSNT S-SW MOV SW CB DSNT SE T02940211
K6A2 5 10 26/21 30.20 K6A2 080135Z AUTO 24005KT 10SM VCTS SCT036 SCT055 BKN110 26/21 A3020 RMK AO2 LTG DSNT ALQS